Gloucester Point, Virginia
Current Conditions -  °F | °C
As of 7:25 AM on Monday 24 Nov 2014 (Local Time) from KPHF Reporting Station
Broken Clouds Broken Clouds  
Wind Chill: 70°   Ceiling: 2300
Heat Index: 70°   Visibility: 9mi
Dew Point: 64°   Wind: 16mph
Humidity: 81%   Direction: 210°SSW
Pressure: 29.77"   Gusts: NA
Location:  37.26°N, 76.49°W
Report Text: KPHF 241225Z 21014KT 9SM SCT015 BKN023 21/18 A2977 RMK AO2 T02110178 $
Loading
Personal Weather Stations






























Interactive Weather Map New forecast layout! Learn more

10-Day Weather Forecast

Advertisements
Track Severe Weather on mobile